createdAt,value
2023-03-08T00:01:22.673Z,3.22
2023-03-08T00:03:54.800Z,3.47
2023-03-08T00:06:23.965Z,2.88
2023-03-08T00:08:56.181Z,2.70
2023-03-08T00:11:24.526Z,2.83
2023-03-08T00:13:57.229Z,3.17
2023-03-08T00:16:26.737Z,3.20
2023-03-08T00:18:56.614Z,4.10
2023-03-08T00:21:24.995Z,3.15
2023-03-08T00:23:54.658Z,3.78
2023-03-08T00:26:23.056Z,3.92
2023-03-08T00:28:51.552Z,4.07
2023-03-08T00:31:21.659Z,3.83
2023-03-08T00:33:53.277Z,4.05
2023-03-08T00:36:23.758Z,4.13
2023-03-08T00:38:52.696Z,4.00
2023-03-08T00:41:21.375Z,4.20
2023-03-08T00:43:49.872Z,5.03
2023-03-08T00:46:18.573Z,4.15
2023-03-08T00:48:47.014Z,4.35
2023-03-08T00:51:18.091Z,4.88
2023-03-08T00:53:49.950Z,4.20
2023-03-08T00:56:18.421Z,5.07
2023-03-08T00:58:47.600Z,4.82
2023-03-08T01:01:18.699Z,5.13
2023-03-08T01:03:49.777Z,5.03
2023-03-08T01:06:18.186Z,4.97
2023-03-08T01:08:49.663Z,5.10
2023-03-08T01:11:23.085Z,5.13
2023-03-08T01:13:52.251Z,4.53
2023-03-08T01:16:23.114Z,4.97
2023-03-08T01:18:53.299Z,5.63
2023-03-08T01:21:24.251Z,5.00
2023-03-08T01:23:52.960Z,4.70
2023-03-08T01:26:25.869Z,4.40
2023-03-08T01:28:58.069Z,5.25
2023-03-08T01:31:28.873Z,4.70
2023-03-08T01:33:58.977Z,4.80
2023-03-08T01:36:29.016Z,4.30
2023-03-08T01:39:02.250Z,4.90
2023-03-08T01:41:33.634Z,4.30
2023-03-08T01:44:02.888Z,4.95
2023-03-08T01:46:33.405Z,4.70
2023-03-08T01:49:15.408Z,4.10
2023-03-08T01:51:46.309Z,4.18
2023-03-08T01:54:19.705Z,5.10
2023-03-08T01:56:52.331Z,4.53
2023-03-08T01:59:23.767Z,4.22
2023-03-08T02:01:52.253Z,3.83
2023-03-08T02:04:21.836Z,4.53
2023-03-08T02:06:50.566Z,4.00
2023-03-08T02:09:23.612Z,5.18
2023-03-08T02:12:00.181Z,3.03
2023-03-08T02:14:29.413Z,3.95
2023-03-08T02:16:58.142Z,4.82
2023-03-08T02:19:30.429Z,3.92
2023-03-08T02:21:58.868Z,4.10
2023-03-08T02:24:28.588Z,3.47
2023-03-08T02:27:03.510Z,3.70
2023-03-08T02:29:32.241Z,3.60
2023-03-08T02:32:00.556Z,3.50
2023-03-08T02:34:28.879Z,4.10
2023-03-08T02:36:57.177Z,4.40
2023-03-08T02:39:25.606Z,3.38
2023-03-08T02:41:58.069Z,3.50
2023-03-08T02:44:26.459Z,3.78
2023-03-08T02:46:55.075Z,3.63
2023-03-08T02:49:23.702Z,3.95
2023-03-08T02:51:53.396Z,3.80
2023-03-08T02:54:22.825Z,3.88
2023-03-08T02:56:51.307Z,3.80
2023-03-08T02:59:23.570Z,3.63
2023-03-08T03:01:52.857Z,3.83
2023-03-08T03:04:21.339Z,3.85
2023-03-08T03:06:49.701Z,3.95
2023-03-08T03:09:18.079Z,4.65
2023-03-08T03:11:46.914Z,3.67
2023-03-08T03:14:15.591Z,3.85
2023-03-08T03:16:53.958Z,3.80
2023-03-08T03:19:22.334Z,4.45
2023-03-08T03:21:50.627Z,4.72
2023-03-08T03:24:19.064Z,4.75
2023-03-08T03:26:53.077Z,4.70
2023-03-08T03:29:23.700Z,4.85
2023-03-08T03:31:59.621Z,5.18
2023-03-08T03:34:28.004Z,5.07
2023-03-08T03:36:56.429Z,5.07
2023-03-08T03:39:25.414Z,4.95
2023-03-08T03:41:54.389Z,5.93
2023-03-08T03:44:22.722Z,5.57
2023-03-08T03:46:51.661Z,5.78
2023-03-08T03:49:26.861Z,5.47
2023-03-08T03:51:55.191Z,5.38
2023-03-08T03:54:28.249Z,5.97
2023-03-08T03:57:00.439Z,6.32
2023-03-08T03:59:34.129Z,6.00
2023-03-08T04:02:04.198Z,5.75
2023-03-08T04:04:52.335Z,6.93
2023-03-08T04:07:24.981Z,5.85
2023-03-08T04:09:58.754Z,6.82
2023-03-08T04:12:27.399Z,6.40
2023-03-08T04:14:57.013Z,7.43
2023-03-08T04:17:29.124Z,7.63
2023-03-08T04:19:59.276Z,7.68
2023-03-08T04:22:29.336Z,8.18
2023-03-08T04:25:11.389Z,9.63
2023-03-08T04:27:52.176Z,9.45
2023-03-08T04:30:21.917Z,7.43
2023-03-08T04:32:50.866Z,8.70
2023-03-08T04:35:22.798Z,9.07
2023-03-08T04:37:54.342Z,9.38
2023-03-08T04:40:25.391Z,10.35
2023-03-08T04:42:58.667Z,10.88
2023-03-08T04:45:32.896Z,10.77
2023-03-08T04:48:05.261Z,12.68
2023-03-08T04:50:36.021Z,10.77
2023-03-08T04:53:05.221Z,11.85
2023-03-08T04:55:33.894Z,12.50
2023-03-08T04:58:02.359Z,11.80
2023-03-08T05:00:33.230Z,11.60
2023-03-08T05:03:01.620Z,12.73
2023-03-08T05:05:30.296Z,13.32
2023-03-08T05:08:04.221Z,13.65
2023-03-08T05:10:34.253Z,13.48
2023-03-08T05:13:02.858Z,13.23
2023-03-08T05:15:31.177Z,13.00
2023-03-08T05:17:59.409Z,12.60
2023-03-08T05:20:28.007Z,13.52
2023-03-08T05:22:59.223Z,13.30
2023-03-08T05:25:36.420Z,14.52
2023-03-08T05:28:04.830Z,14.23
2023-03-08T05:30:33.090Z,14.20
2023-03-08T05:33:01.801Z,13.57
2023-03-08T05:35:30.464Z,13.50
2023-03-08T05:37:59.444Z,11.18
2023-03-08T05:40:28.219Z,14.50
2023-03-08T05:42:59.018Z,14.93
2023-03-08T05:45:28.689Z,13.57
2023-03-08T05:47:57.294Z,11.80
2023-03-08T05:50:26.173Z,11.70
2023-03-08T05:52:54.987Z,13.38
2023-03-08T05:55:27.711Z,11.50
2023-03-08T05:57:58.223Z,12.43
2023-03-08T06:00:27.286Z,11.80
2023-03-08T06:03:04.076Z,12.75
2023-03-08T06:05:37.497Z,12.77
2023-03-08T06:08:06.670Z,10.45
2023-03-08T06:10:35.483Z,13.77
2023-03-08T06:13:05.331Z,11.55
2023-03-08T06:15:33.685Z,13.30
2023-03-08T06:18:02.280Z,13.93
2023-03-08T06:20:32.920Z,13.82
2023-03-08T06:23:01.927Z,12.45
2023-03-08T06:25:35.584Z,12.07
2023-03-08T06:28:05.867Z,10.93
2023-03-08T06:30:39.147Z,13.07
2023-03-08T06:33:07.730Z,12.63
2023-03-08T06:35:36.172Z,11.88
2023-03-08T06:38:06.377Z,12.27
2023-03-08T06:40:35.653Z,12.35
2023-03-08T06:43:05.585Z,11.63
2023-03-08T06:45:34.988Z,12.68
2023-03-08T06:48:03.253Z,13.25
2023-03-08T06:50:31.581Z,11.27
2023-03-08T06:53:00.317Z,10.52
2023-03-08T06:55:43.637Z,12.13
2023-03-08T06:58:13.540Z,11.27
2023-03-08T07:00:42.054Z,11.20
2023-03-08T07:03:11.324Z,11.98
2023-03-08T07:05:39.775Z,12.20
2023-03-08T07:08:08.749Z,10.38
2023-03-08T07:10:37.118Z,10.68
2023-03-08T07:13:05.470Z,12.57
2023-03-08T07:15:35.202Z,11.75
2023-03-08T07:18:03.508Z,11.93
2023-03-08T07:20:31.863Z,11.95
2023-03-08T07:23:01.907Z,9.45
2023-03-08T07:25:31.277Z,10.57
2023-03-08T07:28:00.274Z,9.55
2023-03-08T07:30:29.112Z,10.27
2023-03-08T07:32:59.062Z,10.65
2023-03-08T07:35:27.562Z,9.48
2023-03-08T07:37:55.840Z,9.75
2023-03-08T07:40:24.540Z,9.65
2023-03-08T07:42:52.851Z,9.90
2023-03-08T07:45:43.686Z,8.40
2023-03-08T07:48:13.475Z,9.23
2023-03-08T07:50:41.841Z,9.63
2023-03-08T07:53:10.221Z,9.10
2023-03-08T07:55:39.210Z,8.63
2023-03-08T07:58:07.632Z,9.25
2023-03-08T08:00:36.000Z,8.85
2023-03-08T08:03:04.739Z,8.57
2023-03-08T08:05:42.519Z,8.38
2023-03-08T08:08:13.876Z,7.35
2023-03-08T08:10:42.308Z,7.60
2023-03-08T08:13:10.831Z,9.05
2023-03-08T08:15:39.900Z,7.05
2023-03-08T08:18:08.178Z,8.43
2023-03-08T08:20:38.135Z,7.57
2023-03-08T08:23:09.705Z,7.63
2023-03-08T08:25:40.831Z,7.60
2023-03-08T08:28:09.230Z,6.75
2023-03-08T08:30:37.711Z,5.93
2023-03-08T08:33:06.322Z,6.38
2023-03-08T08:35:43.436Z,6.20
2023-03-08T08:38:13.499Z,5.97
2023-03-08T08:40:45.151Z,5.55
2023-03-08T08:43:13.791Z,6.20
2023-03-08T08:45:45.752Z,5.80
2023-03-08T08:48:15.067Z,8.82
2023-03-08T08:50:44.134Z,5.70
2023-03-08T08:53:16.329Z,6.95
2023-03-08T08:55:45.671Z,6.10
2023-03-08T08:58:14.931Z,5.70
2023-03-08T09:00:43.350Z,5.80
2023-03-08T09:03:11.843Z,5.13
2023-03-08T09:05:41.590Z,5.05
2023-03-08T09:08:10.690Z,4.70
2023-03-08T09:10:41.834Z,5.03
2023-03-08T09:13:14.401Z,5.43
2023-03-08T09:15:42.827Z,5.10
2023-03-08T09:18:11.443Z,4.93
2023-03-08T09:20:45.176Z,3.47
2023-03-08T09:23:15.878Z,3.45
2023-03-08T09:25:46.019Z,3.92
2023-03-08T09:28:14.628Z,5.50
2023-03-08T09:30:43.020Z,4.80
2023-03-08T09:33:11.425Z,4.50
2023-03-08T09:35:42.675Z,4.75
2023-03-08T09:38:11.070Z,4.32
2023-03-08T09:40:47.963Z,4.80
2023-03-08T09:43:25.779Z,4.20
2023-03-08T09:45:55.406Z,4.45
2023-03-08T09:48:29.705Z,3.80
2023-03-08T09:51:02.643Z,3.80
2023-03-08T09:53:35.864Z,4.30
2023-03-08T09:56:09.870Z,4.88
2023-03-08T09:58:48.684Z,4.07
2023-03-08T10:01:33.883Z,3.53
2023-03-08T10:04:22.488Z,4.20
2023-03-08T10:07:01.549Z,4.15
2023-03-08T10:09:35.817Z,4.90
2023-03-08T10:12:17.042Z,4.68
2023-03-08T10:14:50.430Z,4.70
2023-03-08T10:17:22.478Z,4.30
2023-03-08T10:19:57.006Z,4.47
2023-03-08T10:22:29.286Z,3.97
2023-03-08T10:25:02.184Z,4.60
2023-03-08T10:27:35.687Z,4.72
2023-03-08T10:30:16.243Z,4.72
2023-03-08T10:32:45.658Z,4.25
2023-03-08T10:35:14.697Z,4.57
2023-03-08T10:37:43.105Z,4.55
2023-03-08T10:40:20.565Z,4.70
2023-03-08T10:42:54.740Z,5.05
2023-03-08T10:45:25.829Z,4.13
2023-03-08T10:47:59.667Z,3.88
2023-03-08T10:50:30.137Z,4.65
2023-03-08T10:53:10.382Z,5.10
2023-03-08T10:55:46.871Z,4.82
2023-03-08T10:58:48.366Z,4.75
2023-03-08T11:01:28.170Z,5.00
2023-03-08T11:04:04.163Z,4.57
2023-03-08T11:06:35.223Z,4.65
2023-03-08T11:09:06.592Z,4.88
2023-03-08T11:11:42.930Z,4.28
2023-03-08T11:14:12.828Z,4.07
2023-03-08T11:17:09.637Z,3.85
2023-03-08T11:19:47.330Z,4.32
2023-03-08T11:22:25.082Z,4.82
2023-03-08T11:25:14.386Z,4.60
2023-03-08T11:28:10.018Z,4.60
2023-03-08T11:30:51.966Z,4.22
2023-03-08T11:33:48.055Z,4.63
2023-03-08T11:36:22.409Z,5.53
2023-03-08T11:38:59.272Z,4.60
2023-03-08T11:41:35.932Z,4.68
2023-03-08T11:44:18.492Z,5.35
2023-03-08T11:46:58.732Z,4.57
2023-03-08T11:49:50.802Z,4.63
2023-03-08T11:52:30.950Z,5.43
2023-03-08T11:55:20.676Z,5.25
2023-03-08T11:57:55.666Z,4.97
2023-03-08T12:00:29.891Z,4.32
2023-03-08T12:03:04.621Z,4.55
2023-03-08T12:05:38.519Z,4.00
2023-03-08T12:08:15.835Z,4.43
2023-03-08T12:10:50.053Z,5.20
2023-03-08T12:13:24.127Z,4.45
2023-03-08T12:15:56.685Z,4.72
2023-03-08T12:18:35.578Z,4.93
2023-03-08T12:21:15.836Z,4.50
2023-03-08T12:23:49.829Z,4.28
2023-03-08T12:26:23.159Z,3.88
2023-03-08T12:28:57.478Z,4.32
2023-03-08T12:31:29.680Z,5.20
2023-03-08T12:34:00.831Z,4.78
2023-03-08T12:36:42.373Z,4.80
2023-03-08T12:39:26.711Z,5.20
2023-03-08T12:42:00.151Z,4.40
2023-03-08T12:44:30.258Z,4.35
2023-03-08T12:47:03.721Z,4.25
2023-03-08T12:49:34.702Z,4.28
2023-03-08T12:52:24.816Z,4.53
2023-03-08T12:54:59.850Z,4.70
2023-03-08T12:57:31.438Z,5.13
2023-03-08T13:00:24.874Z,4.50
2023-03-08T13:03:01.996Z,4.55
2023-03-08T13:05:33.520Z,6.22
2023-03-08T13:08:23.421Z,4.65
2023-03-08T13:11:02.121Z,4.85
2023-03-08T13:13:50.976Z,4.65
2023-03-08T13:16:37.524Z,4.10
2023-03-08T13:19:22.460Z,4.53
2023-03-08T13:21:55.291Z,4.55
2023-03-08T13:24:49.150Z,4.88
2023-03-08T13:27:25.492Z,4.32
2023-03-08T13:29:55.074Z,5.18
2023-03-08T13:32:27.654Z,4.85
2023-03-08T13:35:03.496Z,5.32
2023-03-08T13:37:32.406Z,5.10
2023-03-08T13:40:05.185Z,6.03
2023-03-08T13:42:33.519Z,5.80
2023-03-08T13:45:10.878Z,4.60
2023-03-08T13:47:41.067Z,4.80
2023-03-08T13:50:17.969Z,4.18
2023-03-08T13:52:46.358Z,5.30
2023-03-08T13:55:20.802Z,6.05
2023-03-08T13:57:52.960Z,5.03
2023-03-08T14:00:30.404Z,5.10
2023-03-08T14:02:59.188Z,5.53
2023-03-08T14:05:29.147Z,4.60
2023-03-08T14:07:59.275Z,5.07
2023-03-08T14:10:35.926Z,5.13
2023-03-08T14:13:05.663Z,7.03
2023-03-08T14:15:39.188Z,5.50
2023-03-08T14:18:10.048Z,5.05
2023-03-08T14:20:38.482Z,6.00
2023-03-08T14:23:07.892Z,5.45
2023-03-08T14:26:19.728Z,5.45
2023-03-08T14:28:49.627Z,5.57
2023-03-08T14:31:28.652Z,6.22
2023-03-08T14:33:59.254Z,6.10
2023-03-08T14:36:28.114Z,6.07
2023-03-08T14:38:57.045Z,5.93
2023-03-08T14:41:34.595Z,5.72
2023-03-08T14:44:05.599Z,8.48
2023-03-08T14:46:33.900Z,8.23
2023-03-08T14:49:03.752Z,7.80
2023-03-08T14:51:40.816Z,6.82
2023-03-08T14:54:23.179Z,8.75
2023-03-08T14:56:51.833Z,7.43
2023-03-08T14:59:27.677Z,7.10
2023-03-08T15:01:56.857Z,7.10
2023-03-08T15:04:26.797Z,6.53
2023-03-08T15:06:56.334Z,6.03
2023-03-08T15:09:26.281Z,6.28
2023-03-08T15:11:58.506Z,5.95
2023-03-08T15:14:30.522Z,6.07
2023-03-08T15:16:59.029Z,5.55
2023-03-08T15:19:27.460Z,6.22
2023-03-08T15:21:55.896Z,5.82
2023-03-08T15:24:24.638Z,6.80
2023-03-08T15:26:52.863Z,6.38
2023-03-08T15:30:02.895Z,6.90
2023-03-08T15:32:32.953Z,6.28
2023-03-08T15:35:01.307Z,7.72
2023-03-08T15:37:29.593Z,6.80
2023-03-08T15:39:57.833Z,6.68
2023-03-08T15:42:26.087Z,7.00
2023-03-08T15:44:54.406Z,6.05
2023-03-08T15:47:22.756Z,7.15
2023-03-08T15:49:53.485Z,7.13
2023-03-08T15:52:24.678Z,7.05
2023-03-08T15:54:54.634Z,6.38
2023-03-08T15:57:23.424Z,6.90
2023-03-08T15:59:51.840Z,6.00
2023-03-08T16:02:21.574Z,7.38
2023-03-08T16:04:55.480Z,6.95
2023-03-08T16:07:25.261Z,6.80
2023-03-08T16:09:53.577Z,6.07
2023-03-08T16:12:21.865Z,6.63
2023-03-08T16:14:51.706Z,6.93
2023-03-08T16:17:20.582Z,6.07
2023-03-08T16:19:48.859Z,6.85
2023-03-08T16:22:17.151Z,7.25
2023-03-08T16:24:47.385Z,7.30
2023-03-08T16:27:16.062Z,7.38
2023-03-08T16:29:45.426Z,7.18
2023-03-08T16:32:15.486Z,7.07
2023-03-08T16:34:43.772Z,6.82
2023-03-08T16:37:19.920Z,6.88
2023-03-08T16:39:50.868Z,7.35
2023-03-08T16:42:20.027Z,6.20
2023-03-08T16:44:50.697Z,7.22
2023-03-08T16:47:19.527Z,7.18
2023-03-08T16:49:48.039Z,6.70
2023-03-08T16:52:17.186Z,7.95
2023-03-08T16:54:46.184Z,8.43
2023-03-08T16:57:19.445Z,6.90
2023-03-08T16:59:48.557Z,7.63
2023-03-08T17:02:22.241Z,7.03
2023-03-08T17:04:51.629Z,6.80
2023-03-08T17:07:20.115Z,8.32
2023-03-08T17:09:48.308Z,9.15
2023-03-08T17:12:19.530Z,9.75
2023-03-08T17:14:47.776Z,8.77
2023-03-08T17:17:16.188Z,9.25
2023-03-08T17:19:44.566Z,8.20
2023-03-08T17:22:13.025Z,9.07
2023-03-08T17:24:41.319Z,9.52
2023-03-08T17:27:09.698Z,8.65
2023-03-08T17:29:39.526Z,8.85
2023-03-08T17:32:08.414Z,8.82
2023-03-08T17:34:36.817Z,9.30
2023-03-08T17:37:11.398Z,8.65
2023-03-08T17:39:39.877Z,8.38
2023-03-08T17:42:08.489Z,8.60
2023-03-08T17:44:38.250Z,8.43
2023-03-08T17:47:06.778Z,9.20
2023-03-08T17:49:35.254Z,9.13
2023-03-08T17:52:03.548Z,9.80
2023-03-08T17:54:32.001Z,9.27
2023-03-08T17:57:00.318Z,10.23
2023-03-08T17:59:28.674Z,9.73
2023-03-08T18:01:58.359Z,9.77
2023-03-08T18:04:26.747Z,9.10
2023-03-08T18:06:55.082Z,9.70
2023-03-08T18:09:24.032Z,10.05
2023-03-08T18:11:52.345Z,11.90
2023-03-08T18:14:26.227Z,10.25
2023-03-08T18:17:04.049Z,9.93
2023-03-08T18:19:33.016Z,10.30
2023-03-08T18:22:02.446Z,9.88
2023-03-08T18:24:30.672Z,9.57
2023-03-08T18:26:59.026Z,9.25
2023-03-08T18:29:27.350Z,10.32
2023-03-08T18:31:55.724Z,10.82
2023-03-08T18:34:25.501Z,10.00
2023-03-08T18:36:53.891Z,10.10
2023-03-08T18:39:22.638Z,11.85
2023-03-08T18:41:51.198Z,11.18
2023-03-08T18:44:19.548Z,10.40
2023-03-08T18:46:47.926Z,10.30
2023-03-08T18:49:16.498Z,11.88
2023-03-08T18:51:46.553Z,11.45
2023-03-08T18:54:17.388Z,11.10
2023-03-08T18:56:46.025Z,11.05
2023-03-08T18:59:15.733Z,10.80
2023-03-08T19:01:44.702Z,11.07
2023-03-08T19:04:13.148Z,11.25
2023-03-08T19:06:41.761Z,11.48
2023-03-08T19:09:13.046Z,11.57
2023-03-08T19:11:42.286Z,12.23
2023-03-08T19:14:13.127Z,12.05
2023-03-08T19:16:41.529Z,12.00
2023-03-08T19:19:11.582Z,11.45
2023-03-08T19:21:42.473Z,13.23
2023-03-08T19:24:13.702Z,12.68
2023-03-08T19:26:43.294Z,13.48
2023-03-08T19:29:14.220Z,12.48
2023-03-08T19:31:44.719Z,14.23
2023-03-08T19:34:14.461Z,14.48
2023-03-08T19:36:43.746Z,15.82
2023-03-08T19:39:16.329Z,14.57
2023-03-08T19:41:45.058Z,13.85
2023-03-08T19:44:13.372Z,13.07
2023-03-08T19:46:41.910Z,13.55
2023-03-08T19:49:13.376Z,13.43
2023-03-08T19:51:42.159Z,13.63
2023-03-08T19:54:10.996Z,13.75
2023-03-08T19:56:42.292Z,13.65
2023-03-08T19:59:13.173Z,14.38
2023-03-08T20:01:42.273Z,12.68
2023-03-08T20:04:11.552Z,14.68
2023-03-08T20:06:46.187Z,13.48
2023-03-08T20:09:18.288Z,12.60
2023-03-08T20:11:47.993Z,14.95
2023-03-08T20:14:16.448Z,13.25
2023-03-08T20:16:44.815Z,13.35
2023-03-08T20:19:13.324Z,13.70
2023-03-08T20:21:41.724Z,14.05
2023-03-08T20:24:10.410Z,13.75
2023-03-08T20:26:39.592Z,14.15
2023-03-08T20:29:09.304Z,14.00
2023-03-08T20:31:37.733Z,13.85
2023-03-08T20:34:06.164Z,16.08
2023-03-08T20:36:34.463Z,15.25
2023-03-08T20:39:02.726Z,14.57
2023-03-08T20:41:31.279Z,14.77
2023-03-08T20:44:01.978Z,15.80
2023-03-08T20:46:33.603Z,15.25
2023-03-08T20:49:02.715Z,16.98
2023-03-08T20:51:31.275Z,18.52
2023-03-08T20:53:59.682Z,18.20
2023-03-08T20:56:28.324Z,20.60
2023-03-08T20:59:00.580Z,20.40
2023-03-08T21:01:32.790Z,18.63
2023-03-08T21:04:01.377Z,19.90
2023-03-08T21:06:31.427Z,20.27
2023-03-08T21:09:00.565Z,20.80
2023-03-08T21:11:29.319Z,19.63
2023-03-08T21:13:57.760Z,18.80
2023-03-08T21:16:28.141Z,20.88
2023-03-08T21:18:59.596Z,21.52
2023-03-08T21:21:30.794Z,20.80
2023-03-08T21:24:01.330Z,21.33
2023-03-08T21:26:30.676Z,22.13
2023-03-08T21:29:01.680Z,23.88
2023-03-08T21:31:30.047Z,22.92
2023-03-08T21:34:02.160Z,21.75
2023-03-08T21:36:30.783Z,23.35
2023-03-08T21:39:00.477Z,23.13
2023-03-08T21:41:31.131Z,23.90
2023-03-08T21:44:00.322Z,24.08
2023-03-08T21:46:29.036Z,24.83
2023-03-08T21:48:57.500Z,23.40
2023-03-08T21:51:27.257Z,22.98
2023-03-08T21:54:00.766Z,23.38
2023-03-08T21:56:29.128Z,26.60
2023-03-08T21:58:57.485Z,23.83
2023-03-08T22:01:27.646Z,25.98
2023-03-08T22:03:56.182Z,25.65
2023-03-08T22:06:26.393Z,23.75
2023-03-08T22:08:54.957Z,25.77
2023-03-08T22:11:24.253Z,24.48
2023-03-08T22:13:58.165Z,22.55
2023-03-08T22:16:27.389Z,23.13
2023-03-08T22:18:57.029Z,23.88
2023-03-08T22:21:27.061Z,23.27
2023-03-08T22:23:57.270Z,24.00
2023-03-08T22:26:26.643Z,23.80
2023-03-08T22:28:55.464Z,23.42
2023-03-08T22:31:26.208Z,23.88
2023-03-08T22:33:55.137Z,23.80
2023-03-08T22:36:24.478Z,24.95
2023-03-08T22:38:54.356Z,24.10
2023-03-08T22:41:24.151Z,24.67
2023-03-08T22:43:52.861Z,26.95
2023-03-08T22:46:22.599Z,25.65
2023-03-08T22:48:52.626Z,26.95
2023-03-08T22:51:22.621Z,27.35
2023-03-08T22:53:51.374Z,28.13
2023-03-08T22:56:23.297Z,26.63
2023-03-08T22:58:52.116Z,28.45
2023-03-08T23:01:23.048Z,27.88
2023-03-08T23:03:55.049Z,26.50
2023-03-08T23:06:23.662Z,27.98
2023-03-08T23:08:52.110Z,26.10
2023-03-08T23:11:21.828Z,25.63
2023-03-08T23:13:50.283Z,25.15
2023-03-08T23:16:18.675Z,22.75
2023-03-08T23:18:50.496Z,26.10
2023-03-08T23:21:20.699Z,24.92
2023-03-08T23:23:49.176Z,25.25
2023-03-08T23:26:21.042Z,23.65
2023-03-08T23:28:51.022Z,23.52
2023-03-08T23:31:21.302Z,24.30
2023-03-08T23:33:50.694Z,25.45
2023-03-08T23:36:22.339Z,24.35
2023-03-08T23:38:51.317Z,24.38
2023-03-08T23:41:20.249Z,24.70
2023-03-08T23:43:50.348Z,26.20
2023-03-08T23:46:20.345Z,25.38
2023-03-08T23:48:49.576Z,24.88
2023-03-08T23:51:19.880Z,23.55
2023-03-08T23:53:50.029Z,24.30
2023-03-08T23:56:26.410Z,27.33
2023-03-08T23:58:58.266Z,25.83
